Redwood National Park, CA

9:51 AM PDT on March 31, 2015 (GMT -0700)
MAP | | Change Station
CLOSE
Current Station
Personal Weather Station
Location: McKinleyville, CA
Elevation: 68 ft
Nearby Weather Stations

Elev 68 ft 40.88 °N, 124.07 °W | Updated 51 minutes ago

Mostly Cloudy
Mostly Cloudy
50 °F
Feels Like 50 °F
N
1
Wind Variable Wind from NE
Gusts 0.0 mph

Today
High -- | Low -- °F
--% Chance of Precip.
Yesterday
High -- | Low -- °F
Precip. -- in
7:01 AM 7:39 PM
Waxing Gibbous, 87% visible
Pressure 30.26 in
Visibility 7.0 miles
Clouds Few 1700 ft
Mostly Cloudy 5500 ft
Dew Point 49 °F
Humidity 94%
Rainfall in
Snow Depth Not available.
UV 1 out of 12
Pollen 6.70 out of 12
Air Quality Not available.
Flu Activity Not available.
METAR KACV 311553Z AUTO 36006KT 7SM -RA FEW017 BKN055 10/08 A3024 RMK AO2 RAB11E25B42 SLP246 P0001 T01000083

More Conditions Fewer Conditions

Pressure 30.26 in
Visibility 7.0 miles
Clouds Few 1700 ft
Mostly Cloudy 5500 ft
Dew Point 49 °F
Humidity 94%
Rainfall in
Snow Depth Not available.
UV 1 out of 12
Pollen 6.70 out of 12
Air Quality Not available.
Flu Activity Not available.
METAR KACV 311553Z AUTO 36006KT 7SM -RA FEW017 BKN055 10/08 A3024 RMK AO2 RAB11E25B42 SLP246 P0001 T01000083

More Conditions Fewer Conditions

10-Day Weather Forecast

Almanac

Astronomy

Mar. 31, 2015 Rise Set
Actual Time
Civil Twilight
Nautical Twilight
Astronomical Twilight
Moon
Length of Visible Light
Length of Day
Tomorrow will be .
, % of the Moon is Illuminated

Today's Extremes

State Highs State Lows

Community

WunderPhotos

Upload Photos

1,809,787 photos uploaded!

WunderBlogs® & News

Nearby

Air Quality

  Air Quality AQ Index Pollutant
Not available.

Snow Depth

Station Depth Elevation

Earthquake Activity

City Distance Mag. Time & Date
Minimum magnitude displayed is 2.5.

Coastal Water Temperatures

Place Temperature

Stations

Nearby Weather Stations

Station Location Temp. Windchill Dew Point Humidity Wind Precip. Elev Updated Type